Time;durP1;ratioP1;P1;durP2;ratioP2;P2;SDS_P1;SDS_P2;PMS_P1;PMS_P2;Temp;Humidity;BMP_temperature;BMP_pressure;BME280_temperature;BME280_humidity;BME280_pressure;Samples;Min_cycle;Max_cycle;Signal;HPM_P1;HPM_P2
2023/11/16 00:01:35;;;;;;;20.33;5.47;;;;;;;7.52;100.00;101473.72;5040744;28;20034;-70
2023/11/16 00:04:00;;;;;;;19.42;5.57;;;;;;;7.49;100.00;101478.03;5036569;28;20116;-70
2023/11/16 00:06:26;;;;;;;21.00;5.30;;;;;;;7.49;100.00;101475.41;5043495;28;20211;-71
2023/11/16 00:08:52;;;;;;;22.25;5.80;;;;;;;7.49;100.00;101470.13;5040616;28;20035;-69
2023/11/16 00:11:18;;;;;;;21.30;5.78;;;;;;;7.55;100.00;101469.41;5042158;28;20464;-69
2023/11/16 00:13:44;;;;;;;20.58;5.65;;;;;;;7.55;100.00;101479.06;5042958;28;20087;-70
2023/11/16 00:16:11;;;;;;;19.77;5.47;;;;;;;7.52;100.00;101471.09;5041638;28;20068;-70
2023/11/16 00:18:40;;;;;;;22.02;5.80;;;;;;;7.52;100.00;101485.13;5043484;28;20033;-70
2023/11/16 00:21:06;;;;;;;20.02;5.35;;;;;;;7.55;100.00;101473.78;5040888;28;20435;-71
2023/11/16 00:23:32;;;;;;;19.33;5.25;;;;;;;7.56;100.00;101487.00;5047465;28;20033;-69
2023/11/16 00:25:59;;;;;;;19.08;5.15;;;;;;;7.58;100.00;101480.03;5044444;28;20037;-70
2023/11/16 00:28:26;;;;;;;22.25;5.43;;;;;;;7.59;100.00;101460.75;5046731;28;21021;-69
2023/11/16 00:30:52;;;;;;;19.55;5.03;;;;;;;7.63;100.00;101461.72;5045352;28;20036;-73
2023/11/16 00:33:18;;;;;;;20.08;5.03;;;;;;;7.60;100.00;101462.56;5045752;28;20108;-72
2023/11/16 00:35:43;;;;;;;20.25;4.90;;;;;;;7.59;100.00;101450.22;5045963;28;20088;-73
2023/11/16 00:38:10;;;;;;;18.65;4.85;;;;;;;7.56;100.00;101465.94;5044669;28;20028;-73
2023/11/16 00:40:35;;;;;;;19.70;4.88;;;;;;;7.44;100.00;101466.50;5047438;28;20040;-73
2023/11/16 00:43:01;;;;;;;22.65;5.57;;;;;;;7.34;100.00;101461.84;5043871;28;20389;-73
2023/11/16 00:45:26;;;;;;;19.35;5.13;;;;;;;7.30;100.00;101467.88;5046841;28;20154;-73
2023/11/16 00:47:52;;;;;;;20.60;5.00;;;;;;;7.21;100.00;101465.88;5044775;28;20036;-73
2023/11/16 00:50:17;;;;;;;19.75;4.93;;;;;;;7.20;100.00;101466.72;5045624;28;20029;-73
2023/11/16 00:52:46;;;;;;;20.88;4.88;;;;;;;7.17;100.00;101465.75;5046029;28;20044;-73
2023/11/16 00:55:11;;;;;;;19.85;4.95;;;;;;;7.14;100.00;101477.94;5044531;28;20028;-73
2023/11/16 00:57:37;;;;;;;22.75;5.38;;;;;;;7.05;100.00;101468.88;5046671;28;20029;-73
2023/11/16 01:00:04;;;;;;;20.48;5.47;;;;;;;6.99;100.00;101477.53;5043719;28;20079;-73
2023/11/16 01:02:34;;;;;;;20.00;4.88;;;;;;;6.91;100.00;101472.03;5039889;28;20507;-73
2023/11/16 01:04:59;;;;;;;20.85;4.97;;;;;;;6.89;100.00;101475.47;5046596;28;20021;-73
2023/11/16 01:07:27;;;;;;;22.08;5.55;;;;;;;6.82;100.00;101473.50;5044137;28;20485;-70
2023/11/16 01:09:53;;;;;;;19.77;5.10;;;;;;;6.72;100.00;101478.47;5045682;28;20030;-70
2023/11/16 01:12:18;;;;;;;19.98;5.25;;;;;;;6.71;100.00;101470.53;5044830;28;20036;-69
2023/11/16 01:14:44;;;;;;;21.23;5.35;;;;;;;6.73;100.00;101474.13;5044604;28;20039;-70
2023/11/16 01:17:18;;;;;;;21.45;4.90;;;;;;;6.67;100.00;101466.94;5044673;28;20032;-70
2023/11/16 01:19:45;;;;;;;20.05;5.00;;;;;;;6.79;100.00;101474.31;5044304;28;20030;-71
2023/11/16 01:22:15;;;;;;;23.15;5.32;;;;;;;6.76;100.00;101476.84;5045909;28;20075;-70
2023/11/16 01:24:44;;;;;;;19.42;5.30;;;;;;;6.67;100.00;101473.91;5042678;28;20029;-70
2023/11/16 01:27:15;;;;;;;19.10;5.10;;;;;;;6.60;100.00;101470.22;5045816;28;20029;-71
2023/11/16 01:29:45;;;;;;;22.17;5.63;;;;;;;6.54;100.00;101467.38;5042381;28;20030;-70
2023/11/16 01:32:12;;;;;;;20.75;5.50;;;;;;;6.47;100.00;101465.44;5045627;28;20388;-70
2023/11/16 01:34:38;;;;;;;21.15;5.13;;;;;;;6.43;100.00;101469.69;5043094;28;20025;-70
2023/11/16 01:37:03;;;;;;;18.42;5.03;;;;;;;6.44;100.00;101460.97;5046189;28;20045;-70
2023/11/16 01:39:33;;;;;;;21.13;5.20;;;;;;;6.58;100.00;101464.94;5042082;28;20103;-71
2023/11/16 01:41:58;;;;;;;22.17;5.75;;;;;;;6.53;100.00;101463.88;5045857;28;20025;-69
2023/11/16 01:44:24;;;;;;;20.83;5.38;;;;;;;6.53;100.00;101465.63;5043611;28;20036;-70
2023/11/16 01:46:50;;;;;;;20.60;5.00;;;;;;;6.49;100.00;101469.88;5043535;28;20064;-73
2023/11/16 01:49:16;;;;;;;20.83;5.32;;;;;;;6.48;100.00;101468.13;5044649;28;20029;-73
2023/11/16 01:51:45;;;;;;;21.15;5.20;;;;;;;6.49;100.00;101458.50;5043401;28;20029;-73
2023/11/16 01:54:14;;;;;;;20.23;5.40;;;;;;;6.45;100.00;101461.03;5045471;28;20037;-73
2023/11/16 01:56:39;;;;;;;21.10;5.20;;;;;;;6.51;100.00;101467.28;5043003;28;20026;-74
2023/11/16 01:59:07;;;;;;;20.60;5.30;;;;;;;6.53;100.00;101463.88;5045895;28;20459;-73
2023/11/16 02:01:35;;;;;;;20.65;5.35;;;;;;;6.54;100.00;101462.13;5038772;28;20051;-73
2023/11/16 02:04:04;;;;;;;21.73;5.25;;;;;;;6.53;100.00;101463.00;5045564;28;20083;-73
2023/11/16 02:06:32;;;;;;;20.23;5.00;;;;;;;6.54;100.00;101462.13;5042405;28;20029;-73
2023/11/16 02:08:58;;;;;;;20.20;5.13;;;;;;;6.59;100.00;101460.56;5044275;28;20036;-73
2023/11/16 02:11:24;;;;;;;19.25;5.32;;;;;;;6.55;100.00;101459.59;5043048;28;20060;-73
2023/11/16 02:13:50;;;;;;;20.65;5.10;;;;;;;6.55;100.00;101462.22;5043998;28;20021;-73
2023/11/16 02:16:15;;;;;;;22.45;5.00;;;;;;;6.55;100.00;101456.03;5044579;28;20033;-73
2023/11/16 02:18:41;;;;;;;20.85;5.47;;;;;;;6.51;100.00;101460.31;5042629;28;20025;-73
2023/11/16 02:21:07;;;;;;;21.48;5.40;;;;;;;6.50;100.00;101455.03;5045353;28;20036;-73
2023/11/16 02:23:36;;;;;;;20.90;5.00;;;;;;;6.51;100.00;101451.53;5042063;28;20080;-73
2023/11/16 02:26:02;;;;;;;19.92;5.00;;;;;;;6.49;100.00;101446.25;5038176;28;20021;-73
2023/11/16 02:28:29;;;;;;;20.50;5.53;;;;;;;6.47;100.00;101447.94;5044751;28;20118;-73
2023/11/16 02:30:57;;;;;;;20.73;5.50;;;;;;;6.45;100.00;101455.78;5042802;28;20476;-73
2023/11/16 02:33:23;;;;;;;21.25;5.68;;;;;;;6.43;100.00;101449.56;5043904;28;20026;-69
2023/11/16 02:35:52;;;;;;;19.95;5.80;;;;;;;6.42;100.00;101453.06;5042077;28;20068;-69
2023/11/16 02:38:18;;;;;;;20.63;5.18;;;;;;;6.42;100.00;101446.88;5043414;28;20033;-69
2023/11/16 02:40:44;;;;;;;20.20;5.75;;;;;;;6.45;100.00;101452.22;5043981;28;20036;-70
2023/11/16 02:43:09;;;;;;;21.10;5.43;;;;;;;6.47;100.00;101458.44;5041902;28;20384;-70
2023/11/16 02:45:35;;;;;;;20.25;5.43;;;;;;;6.51;100.00;101452.44;5044548;28;20056;-70
2023/11/16 02:48:02;;;;;;;20.73;5.50;;;;;;;6.53;100.00;101447.25;5041601;28;20061;-70
2023/11/16 02:50:27;;;;;;;20.20;5.20;;;;;;;6.55;100.00;101453.41;5044270;28;20115;-70
2023/11/16 02:52:53;;;;;;;22.17;5.90;;;;;;;6.57;100.00;101452.63;5042666;28;20179;-70
2023/11/16 02:55:20;;;;;;;19.73;5.43;;;;;;;6.55;100.00;101462.22;5043067;28;20041;-70
2023/11/16 02:57:46;;;;;;;20.80;5.35;;;;;;;6.57;100.00;101460.50;5043456;28;20037;-69
2023/11/16 03:00:12;;;;;;;20.35;5.25;;;;;;;6.57;100.00;101450.00;5042163;28;20030;-70
2023/11/16 03:02:42;;;;;;;20.83;5.35;;;;;;;6.56;100.00;101455.22;5044455;28;20480;-70
2023/11/16 03:05:10;;;;;;;22.77;5.45;;;;;;;6.54;100.00;101442.03;5041295;28;20025;-70
2023/11/16 03:07:37;;;;;;;21.00;5.40;;;;;;;6.54;100.00;101449.91;5044956;28;20033;-70
2023/11/16 03:10:04;;;;;;;20.85;5.78;;;;;;;6.54;100.00;101452.53;5037263;28;20076;-73
2023/11/16 03:12:29;;;;;;;20.13;5.32;;;;;;;6.55;100.00;101445.53;5044102;28;20029;-73
2023/11/16 03:14:55;;;;;;;21.25;6.07;;;;;;;6.57;100.00;101434.25;5042206;28;20502;-74
2023/11/16 03:17:22;;;;;;;20.42;5.82;;;;;;;6.58;100.00;101441.28;5041592;28;20029;-73
2023/11/16 03:19:48;;;;;;;20.73;5.60;;;;;;;6.61;100.00;101432.56;5043168;28;20052;-73
2023/11/16 03:22:13;;;;;;;20.65;6.05;;;;;;;6.62;100.00;101439.63;5041925;28;20076;-74
2023/11/16 03:24:38;;;;;;;21.83;5.80;;;;;;;6.60;100.00;101433.44;5044417;28;20032;-74
2023/11/16 03:27:04;;;;;;;21.77;5.65;;;;;;;6.55;100.00;101432.41;5041164;28;20113;-73
2023/11/16 03:29:30;;;;;;;20.95;5.93;;;;;;;6.56;100.00;101440.31;5044062;28;20049;-74
2023/11/16 03:31:56;;;;;;;22.20;5.80;;;;;;;6.54;100.00;101442.03;5041704;28;20091;-74
2023/11/16 03:34:22;;;;;;;20.40;6.03;;;;;;;6.51;100.00;101436.69;5042893;28;20033;-73
2023/11/16 03:36:48;;;;;;;20.77;5.80;;;;;;;6.54;100.00;101442.03;5042745;28;20044;-74
2023/11/16 03:39:13;;;;;;;19.98;6.25;;;;;;;6.54;100.00;101436.78;5041907;28;20037;-73
2023/11/16 03:41:38;;;;;;;22.45;6.57;;;;;;;6.54;100.00;101436.78;5044072;28;20408;-74
2023/11/16 03:44:04;;;;;;;22.33;6.40;;;;;;;6.55;100.00;101429.78;5039485;28;20040;-74
2023/11/16 03:46:30;;;;;;;22.63;6.38;;;;;;;6.55;100.00;101443.81;5043854;28;20057;-73
2023/11/16 03:48:55;;;;;;;21.08;6.63;;;;;;;6.54;100.00;101446.38;5041767;28;20059;-73
2023/11/16 03:51:21;;;;;;;21.35;6.13;;;;;;;6.54;100.00;101441.13;5042482;28;20109;-73
2023/11/16 03:53:46;;;;;;;22.50;6.60;;;;;;;6.54;100.00;101442.03;5042818;28;20548;-73
2023/11/16 03:56:11;;;;;;;22.48;6.82;;;;;;;6.53;100.00;101434.97;5043212;28;20358;-70
2023/11/16 03:58:37;;;;;;;22.05;6.40;;;;;;;6.54;100.00;101430.63;5048170;28;20372;-70
2023/11/16 04:01:03;;;;;;;20.55;6.25;;;;;;;6.54;100.00;101435.88;5040615;28;20038;-70
2023/11/16 04:03:28;;;;;;;21.52;6.35;;;;;;;6.53;100.00;101426.22;5047706;28;20044;-71
2023/11/16 04:05:54;;;;;;;21.48;6.32;;;;;;;6.53;100.00;101424.47;5045554;28;20517;-71
2023/11/16 04:08:20;;;;;;;21.27;6.40;;;;;;;6.52;100.00;101422.69;5046203;28;20473;-70
2023/11/16 04:10:45;;;;;;;20.90;6.63;;;;;;;6.52;100.00;101427.94;5046787;28;20024;-69
2023/11/16 04:13:11;;;;;;;21.98;6.82;;;;;;;6.51;100.00;101428.81;5044781;28;20033;-70
2023/11/16 04:15:37;;;;;;;22.08;6.88;;;;;;;6.51;100.00;101420.94;5047901;28;20063;-70
2023/11/16 04:18:03;;;;;;;22.08;6.65;;;;;;;6.51;100.00;101423.56;5044455;28;20033;-69
2023/11/16 04:20:29;;;;;;;22.42;6.47;;;;;;;6.50;100.00;101423.50;5047274;28;20533;-70
2023/11/16 04:22:55;;;;;;;22.70;6.70;;;;;;;6.53;100.00;101421.84;5045217;28;20037;-70
2023/11/16 04:25:25;;;;;;;21.92;6.30;;;;;;;6.50;100.00;101415.63;5046038;28;20061;-69
2023/11/16 04:27:51;;;;;;;21.70;6.57;;;;;;;6.50;100.00;101413.00;5044493;28;20047;-70
2023/11/16 04:30:19;;;;;;;22.35;6.30;;;;;;;6.48;100.00;101418.22;5045290;28;20033;-69
2023/11/16 04:32:45;;;;;;;21.52;6.40;;;;;;;6.49;100.00;101417.34;5046571;28;20028;-69
2023/11/16 04:35:13;;;;;;;22.17;6.45;;;;;;;6.49;100.00;101422.59;5044349;28;20036;-70
2023/11/16 04:37:39;;;;;;;22.65;6.63;;;;;;;6.49;100.00;101430.47;5046934;28;20137;-70
2023/11/16 04:40:08;;;;;;;22.77;6.47;;;;;;;6.50;100.00;101423.50;5044106;28;20069;-70
2023/11/16 04:42:34;;;;;;;19.30;5.95;;;;;;;6.49;100.00;101427.84;5040092;28;20042;-71
2023/11/16 04:45:01;;;;;;;21.95;6.70;;;;;;;6.50;100.00;101434.91;5046749;28;20070;-70
2023/11/16 04:47:27;;;;;;;20.85;6.40;;;;;;;6.48;100.00;101430.44;5044991;28;20376;-70
2023/11/16 04:49:52;;;;;;;21.42;6.38;;;;;;;6.46;100.00;101435.63;5045611;28;20030;-70
2023/11/16 04:52:18;;;;;;;21.90;6.50;;;;;;;6.44;100.00;101432.97;5045613;28;20040;-70
2023/11/16 04:54:43;;;;;;;22.13;6.63;;;;;;;6.44;100.00;101424.22;5044608;28;20080;-70
2023/11/16 04:57:08;;;;;;;21.55;6.45;;;;;;;6.43;100.00;101422.41;5046870;28;20491;-70
2023/11/16 04:59:34;;;;;;;21.30;6.05;;;;;;;6.44;100.00;101414.59;5043678;28;20052;-71
2023/11/16 05:01:59;;;;;;;22.77;6.78;;;;;;;6.44;100.00;101409.31;5046585;28;20052;-69
2023/11/16 05:04:24;;;;;;;21.15;6.80;;;;;;;6.41;100.00;101416.25;5044565;28;20033;-69
2023/11/16 05:06:50;;;;;;;22.15;6.72;;;;;;;6.40;100.00;101420.59;5044839;28;20033;-70
2023/11/16 05:09:15;;;;;;;22.58;6.70;;;;;;;6.31;100.00;101417.69;5045137;28;20029;-69
2023/11/16 05:11:41;;;;;;;22.27;6.47;;;;;;;6.26;100.00;101419.25;5042474;28;20040;-69
2023/11/16 05:14:06;;;;;;;20.00;6.78;;;;;;;6.24;100.00;101418.34;5047144;28;20033;-69
2023/11/16 05:16:31;;;;;;;22.33;6.85;;;;;;;6.20;100.00;101419.97;5043501;28;20037;-69
2023/11/16 05:18:57;;;;;;;22.42;6.70;;;;;;;6.09;100.00;101417.00;5045710;28;20017;-69
2023/11/16 05:21:22;;;;;;;22.48;6.80;;;;;;;6.01;100.00;101423.72;5044907;28;20456;-69
2023/11/16 05:23:47;;;;;;;23.08;7.32;;;;;;;5.91;100.00;101417.28;5044367;28;20030;-69
2023/11/16 05:26:13;;;;;;;24.38;7.43;;;;;;;5.87;100.00;101427.63;5045782;28;20115;-70
2023/11/16 05:28:38;;;;;;;25.20;7.97;;;;;;;5.82;100.00;101426.59;5043153;28;20407;-73
2023/11/16 05:31:04;;;;;;;24.25;7.65;;;;;;;5.78;100.00;101416.81;5046331;28;20037;-73
2023/11/16 05:33:31;;;;;;;22.67;7.88;;;;;;;5.75;100.00;101415.88;5043323;28;20079;-73
2023/11/16 05:35:56;;;;;;;24.67;8.18;;;;;;;5.73;100.00;101414.94;5045341;28;20423;-74
2023/11/16 05:38:21;;;;;;;26.88;8.30;;;;;;;5.72;100.00;101407.91;5027017;28;20029;-74
2023/11/16 05:40:46;;;;;;;25.60;8.57;;;;;;;5.70;100.00;101406.09;5044052;28;20026;-74
2023/11/16 05:43:12;;;;;;;25.80;8.48;;;;;;;5.67;100.00;101396.38;5045891;28;20028;-74
2023/11/16 05:45:40;;;;;;;25.75;8.65;;;;;;;5.67;100.00;101405.97;5042619;28;20108;-73
2023/11/16 05:48:09;;;;;;;24.17;8.88;;;;;;;5.66;100.00;101407.69;5039044;28;20038;-73
2023/11/16 05:50:36;;;;;;;25.05;8.90;;;;;;;5.67;100.00;101398.13;5038791;28;20025;-72
2023/11/16 05:53:02;;;;;;;25.10;8.85;;;;;;;5.65;100.00;101389.28;5045582;28;20064;-73
2023/11/16 05:55:30;;;;;;;26.95;8.90;;;;;;;5.62;100.00;101397.06;5043539;28;20068;-73
2023/11/16 05:57:56;;;;;;;24.50;8.40;;;;;;;5.62;100.00;101391.81;5044987;28;20033;-73
2023/11/16 06:00:21;;;;;;;26.17;8.75;;;;;;;5.62;100.00;101392.72;5043940;28;20399;-73
2023/11/16 06:02:47;;;;;;;23.60;8.85;;;;;;;5.62;100.00;101392.72;5043869;28;20037;-72
2023/11/16 06:05:12;;;;;;;26.20;9.13;;;;;;;5.64;100.00;101395.41;5045148;28;20480;-72
2023/11/16 06:07:40;;;;;;;26.50;9.40;;;;;;;5.66;100.00;101391.06;5042211;28;20033;-73
2023/11/16 06:10:06;;;;;;;26.00;9.05;;;;;;;5.65;100.00;101394.53;5037527;28;20038;-73
2023/11/16 06:12:33;;;;;;;27.15;9.13;;;;;;;5.66;100.00;101388.44;5044062;28;20025;-73
2023/11/16 06:15:00;;;;;;;27.42;9.98;;;;;;;5.70;100.00;101390.34;5042792;28;20365;-73
2023/11/16 06:17:26;;;;;;;27.45;9.68;;;;;;;5.72;100.00;101388.66;5044484;28;20037;-73
2023/11/16 06:19:52;;;;;;;25.15;9.35;;;;;;;5.74;100.00;101381.72;5043880;28;20032;-73
2023/11/16 06:22:17;;;;;;;24.00;9.13;;;;;;;5.76;100.00;101388.78;5042881;28;20476;-74
2023/11/16 06:24:43;;;;;;;26.13;9.35;;;;;;;5.76;100.00;101380.91;5044956;28;20021;-73
2023/11/16 06:27:08;;;;;;;24.13;8.98;;;;;;;5.74;100.00;101381.72;5042125;28;20030;-73
2023/11/16 06:29:34;;;;;;;24.98;9.38;;;;;;;5.76;100.00;101374.78;5037830;28;20018;-73
2023/11/16 06:32:00;;;;;;;23.33;8.80;;;;;;;5.76;100.00;101369.53;5044768;28;20051;-73
2023/11/16 06:34:25;;;;;;;25.20;8.63;;;;;;;5.77;100.00;101366.09;5042878;28;20404;-74
2023/11/16 06:36:51;;;;;;;23.42;8.23;;;;;;;5.78;100.00;101361.72;5042944;28;20067;-73
2023/11/16 06:39:16;;;;;;;24.73;8.70;;;;;;;5.80;100.00;101365.31;5044282;28;20510;-74
2023/11/16 06:41:41;;;;;;;24.40;7.97;;;;;;;5.80;100.00;101360.94;5041935;28;20104;-73
2023/11/16 06:44:07;;;;;;;24.08;7.88;;;;;;;5.79;100.00;101359.16;5043687;28;20091;-73
2023/11/16 06:46:34;;;;;;;23.27;8.38;;;;;;;5.76;100.00;101352.06;5041762;28;20026;-70
2023/11/16 06:49:01;;;;;;;24.98;8.30;;;;;;;5.78;100.00;101357.34;5044231;28;20057;-70
2023/11/16 06:51:27;;;;;;;24.00;8.10;;;;;;;5.79;100.00;101347.78;5042505;28;20040;-70
2023/11/16 06:53:53;;;;;;;24.63;8.23;;;;;;;5.83;100.00;101344.41;5043285;28;20025;-70
2023/11/16 06:56:18;;;;;;;24.77;7.78;;;;;;;5.80;100.00;101329.44;5043594;28;20388;-70
2023/11/16 06:58:43;;;;;;;24.17;7.72;;;;;;;5.81;100.00;101330.31;5040956;28;20029;-71
2023/11/16 07:01:09;;;;;;;23.33;7.60;;;;;;;5.81;100.00;101322.47;5044984;28;20036;-69
2023/11/16 07:03:35;;;;;;;26.38;7.95;;;;;;;5.83;100.00;101323.41;5037301;28;20076;-70
2023/11/16 07:06:00;;;;;;;23.30;7.15;;;;;;;5.83;100.00;101316.41;5043016;28;20120;-69
2023/11/16 07:08:25;;;;;;;23.08;7.40;;;;;;;5.83;100.00;101311.19;5042317;28;20111;-70
2023/11/16 07:10:51;;;;;;;22.90;7.53;;;;;;;5.84;100.00;101312.97;5042597;28;20021;-70
2023/11/16 07:13:19;;;;;;;23.92;7.30;;;;;;;5.85;100.00;101304.22;5043684;28;20032;-69
2023/11/16 07:15:46;;;;;;;22.27;6.80;;;;;;;5.86;100.00;101299.91;5041758;28;20036;-69
2023/11/16 07:18:12;;;;;;;24.35;7.45;;;;;;;5.88;100.00;101306.06;5044150;28;20037;-69
2023/11/16 07:20:37;;;;;;;22.15;6.68;;;;;;;5.89;100.00;101297.34;5041229;28;20034;-69
2023/11/16 07:23:03;;;;;;;21.58;7.10;;;;;;;5.89;100.00;101298.25;5044034;28;20029;-69
2023/11/16 07:25:29;;;;;;;21.58;6.82;;;;;;;5.91;100.00;101291.31;5041635;28;20048;-69
2023/11/16 07:27:54;;;;;;;21.05;6.68;;;;;;;5.93;100.00;101294.00;5043182;28;20176;-70
2023/11/16 07:30:20;;;;;;;23.05;7.00;;;;;;;5.94;100.00;101303.63;5042263;28;20033;-70
2023/11/16 07:32:48;;;;;;;23.67;6.68;;;;;;;5.96;100.00;101309.81;5040344;28;20370;-70
2023/11/16 07:35:16;;;;;;;21.45;6.68;;;;;;;5.97;100.00;101300.22;5043927;28;20033;-70
2023/11/16 07:37:45;;;;;;;22.25;6.82;;;;;;;6.00;100.00;101296.00;5040735;28;20515;-70
2023/11/16 07:40:15;;;;;;;21.60;6.75;;;;;;;6.03;100.00;101292.53;5043974;28;20040;-70
2023/11/16 07:42:41;;;;;;;21.98;6.70;;;;;;;6.05;100.00;101293.50;5041038;28;20037;-71
2023/11/16 07:45:13;;;;;;;21.92;6.80;;;;;;;6.06;100.00;101277.78;5044129;28;20480;-70
2023/11/16 07:47:43;;;;;;;24.70;7.00;;;;;;;6.08;100.00;101278.72;5037108;28;20088;-70
2023/11/16 07:50:11;;;;;;;22.05;6.95;;;;;;;6.10;100.00;101274.41;5037190;28;20094;-70
2023/11/16 07:52:43;;;;;;;22.23;6.60;;;;;;;6.13;100.00;101265.75;5036881;28;20079;-73
2023/11/16 07:55:16;;;;;;;23.30;6.95;;;;;;;6.15;100.00;101263.16;5037091;28;20041;-73
2023/11/16 07:57:47;;;;;;;21.80;6.40;;;;;;;6.16;100.00;101263.22;5037533;28;20112;-73
2023/11/16 08:00:22;;;;;;;23.65;6.80;;;;;;;6.20;100.00;101262.44;5043673;28;20036;-73
2023/11/16 08:05:31;;;;;;;22.67;6.80;;;;;;;6.25;100.00;101250.34;5041385;28;20040;-73
2023/11/16 08:07:57;;;;;;;22.13;6.63;;;;;;;6.31;100.00;101254.00;5042783;28;20033;-73
2023/11/16 08:10:24;;;;;;;22.48;6.65;;;;;;;6.30;100.00;101258.34;5042250;28;20022;-74
2023/11/16 08:12:53;;;;;;;21.95;6.30;;;;;;;6.34;100.00;101254.09;5041778;28;20037;-73
2023/11/16 08:15:23;;;;;;;22.65;6.82;;;;;;;6.34;100.00;101264.59;5042633;28;20028;-73
2023/11/16 08:17:49;;;;;;;23.77;6.82;;;;;;;6.35;100.00;101261.09;5040670;28;20116;-71
2023/11/16 08:20:15;;;;;;;24.67;7.28;;;;;;;6.32;100.00;101261.91;5042118;28;20475;-72
2023/11/16 08:22:40;;;;;;;25.92;7.65;;;;;;;6.32;100.00;101258.38;5040374;28;20049;-73
2023/11/16 08:25:07;;;;;;;22.95;7.13;;;;;;;6.27;100.00;101247.75;5042514;28;20391;-73
2023/11/16 08:27:32;;;;;;;24.60;7.15;;;;;;;6.28;100.00;101255.69;5040838;28;20029;-72
2023/11/16 08:29:58;;;;;;;24.23;7.47;;;;;;;6.32;100.00;101258.38;5042714;28;20030;-73
2023/11/16 08:32:23;;;;;;;21.85;8.25;;;;;;;6.34;100.00;101254.09;5041670;28;20061;-73
2023/11/16 08:34:48;;;;;;;23.77;7.20;;;;;;;6.39;100.00;101253.38;5041569;28;20113;-73
2023/11/16 08:37:14;;;;;;;23.85;7.63;;;;;;;6.40;100.00;101244.63;5042875;28;20051;-73
2023/11/16 08:39:40;;;;;;;22.38;7.43;;;;;;;6.45;100.00;101250.91;5040172;28;20092;-74
2023/11/16 08:42:06;;;;;;;24.48;7.50;;;;;;;6.47;100.00;101240.44;5042910;28;20116;-73
2023/11/16 08:44:33;;;;;;;24.27;7.57;;;;;;;6.50;100.00;101237.00;5044060;28;20083;-73
2023/11/16 08:47:03;;;;;;;26.17;7.88;;;;;;;6.52;100.00;101235.31;5046211;28;20030;-73
2023/11/16 08:49:31;;;;;;;24.65;8.15;;;;;;;6.52;100.00;101238.81;5043729;28;20434;-73
2023/11/16 08:51:58;;;;;;;21.95;7.25;;;;;;;6.47;100.00;101235.19;5045853;28;20040;-73
2023/11/16 08:54:26;;;;;;;22.80;7.28;;;;;;;6.49;100.00;101238.72;5045238;28;20040;-73
2023/11/16 08:56:51;;;;;;;23.67;7.35;;;;;;;6.52;100.00;101236.19;5045244;28;20033;-74
2023/11/16 08:59:17;;;;;;;22.90;7.25;;;;;;;6.56;100.00;101226.66;5046187;28;20036;-74
2023/11/16 09:01:43;;;;;;;24.50;7.85;;;;;;;6.63;100.00;101233.88;5043774;28;20489;-73
2023/11/16 09:04:12;;;;;;;22.02;7.25;;;;;;;6.69;100.00;101241.03;5047340;28;20057;-73
2023/11/16 09:06:39;;;;;;;22.45;7.43;;;;;;;6.74;100.00;101232.41;5036228;28;20021;-74
2023/11/16 09:09:33;;;;;;;24.40;7.53;;;;;;;6.85;100.00;101230.06;5039570;28;20057;-73
2023/11/16 09:12:04;;;;;;;23.40;7.60;;;;;;;6.90;100.00;101236.34;5043071;28;20392;-70
2023/11/16 09:14:33;;;;;;;24.42;7.88;;;;;;;6.92;100.00;101229.38;5045240;28;20061;-70
2023/11/16 09:17:02;;;;;;;24.20;7.70;;;;;;;6.93;100.00;101223.25;5044667;28;20044;-70
2023/11/16 09:19:31;;;;;;;23.95;7.68;;;;;;;6.92;100.00;101216.22;5044577;28;20530;-71
2023/11/16 09:21:58;;;;;;;25.95;7.95;;;;;;;6.93;100.00;101220.63;5045085;28;20029;-71
2023/11/16 09:24:27;;;;;;;23.25;7.72;;;;;;;7.01;100.00;101235.72;5043977;28;20022;-70
2023/11/16 09:26:55;;;;;;;23.08;7.25;;;;;;;7.00;100.00;101237.44;5045008;28;20607;-72
2023/11/16 09:29:20;;;;;;;22.85;7.50;;;;;;;6.95;100.00;101229.44;5045790;28;20112;-70
2023/11/16 09:31:46;;;;;;;22.83;7.43;;;;;;;6.95;100.00;101223.31;5043001;28;20539;-72
2023/11/16 09:34:11;;;;;;;22.38;7.68;;;;;;;6.98;100.00;101226.88;5046316;28;20029;-71
2023/11/16 09:36:37;;;;;;;21.83;7.30;;;;;;;6.96;100.00;101227.69;5043049;28;20080;-71
2023/11/16 09:39:07;;;;;;;25.45;7.72;;;;;;;7.00;100.00;101223.41;5045304;28;20481;-70
2023/11/16 09:41:33;;;;;;;22.85;8.10;;;;;;;7.00;100.00;101218.16;5043839;28;20045;-71
2023/11/16 09:44:05;;;;;;;25.75;8.48;;;;;;;7.02;100.00;101213.81;5042897;28;20033;-71
2023/11/16 09:46:32;;;;;;;22.58;8.35;;;;;;;7.03;100.00;101211.22;5043377;28;20388;-73
2023/11/16 09:49:05;;;;;;;23.17;7.90;;;;;;;7.04;100.00;101214.75;5045400;28;20080;-74
2023/11/16 09:51:31;;;;;;;28.85;8.80;;;;;;;7.07;100.00;101210.44;5042958;28;20111;-73
2023/11/16 09:54:01;;;;;;;25.90;8.98;;;;;;;7.08;100.00;101204.34;5044194;28;20033;-73
2023/11/16 09:56:30;;;;;;;25.13;8.85;;;;;;;7.13;100.00;101201.81;5043792;28;20033;-74
2023/11/16 09:59:06;;;;;;;23.17;8.40;;;;;;;7.14;100.00;101193.97;5044546;28;20057;-74
2023/11/16 10:01:37;;;;;;;26.02;8.45;;;;;;;7.16;100.00;101186.13;5042875;28;20495;-73
2023/11/16 10:04:05;;;;;;;22.55;8.13;;;;;;;7.21;100.00;101184.50;5044196;28;20388;-73
2023/11/16 10:06:32;;;;;;;26.05;8.75;;;;;;;7.25;100.00;101178.47;5043073;28;20029;-70
2023/11/16 10:09:02;;;;;;;24.95;8.40;;;;;;;7.24;100.00;101170.53;5044635;28;20053;-71
2023/11/16 10:11:31;;;;;;;24.55;8.38;;;;;;;7.26;100.00;101167.06;5042892;28;20029;-73
2023/11/16 10:13:56;;;;;;;24.52;8.65;;;;;;;7.28;100.00;101169.72;5044306;28;20037;-73
2023/11/16 10:16:26;;;;;;;25.30;8.80;;;;;;;7.30;100.00;101166.28;5043699;28;20091;-73
2023/11/16 10:19:10;;;;;;;25.25;10.10;;;;;;;7.35;100.00;101162.88;5043655;28;20029;-74
2023/11/16 10:21:39;;;;;;;24.73;9.02;;;;;;;7.41;100.00;101165.66;5037959;28;20053;-74
2023/11/16 10:24:09;;;;;;;25.40;9.55;;;;;;;7.38;100.00;101161.19;5044139;28;20021;-74
2023/11/16 10:26:34;;;;;;;23.73;8.40;;;;;;;7.36;100.00;101165.53;5042200;28;20036;-73
2023/11/16 10:29:00;;;;;;;25.20;9.00;;;;;;;7.32;100.00;101167.25;5044559;28;20026;-74
2023/11/16 10:31:30;;;;;;;24.45;9.30;;;;;;;7.35;100.00;101157.63;5043217;28;20128;-73
2023/11/16 10:33:58;;;;;;;26.52;9.52;;;;;;;7.32;100.00;101151.47;5044049;28;20480;-74
2023/11/16 10:36:26;;;;;;;23.00;8.88;;;;;;;7.37;100.00;101145.38;5043191;28;20033;-74
2023/11/16 10:38:52;;;;;;;25.90;9.57;;;;;;;7.36;100.00;101141.88;5043127;28;20116;-73
2023/11/16 10:41:19;;;;;;;25.67;9.02;;;;;;;7.38;100.00;101147.16;5044183;28;20035;-74
2023/11/16 10:43:46;;;;;;;24.00;9.88;;;;;;;7.41;100.00;101144.59;5042129;28;20030;-74
2023/11/16 10:46:12;;;;;;;23.25;9.20;;;;;;;7.43;100.00;101137.66;5044877;28;20029;-73
2023/11/16 10:48:38;;;;;;;25.38;9.65;;;;;;;7.46;100.00;101130.69;5041624;28;20029;-74
2023/11/16 10:51:07;;;;;;;23.65;9.13;;;;;;;7.46;100.00;101135.09;5044819;28;20043;-73
2023/11/16 10:53:37;;;;;;;25.38;9.00;;;;;;;7.44;100.00;101128.88;5041710;28;20469;-73
2023/11/16 10:56:07;;;;;;;25.13;8.90;;;;;;;7.43;100.00;101122.75;5044608;28;20043;-73
2023/11/16 10:58:38;;;;;;;23.60;8.90;;;;;;;7.42;100.00;101105.19;5041719;28;20493;-74
2023/11/16 11:01:07;;;;;;;23.00;8.50;;;;;;;7.45;100.00;101107.00;5044347;28;20481;-74
2023/11/16 11:03:35;;;;;;;24.90;10.40;;;;;;;7.47;100.00;101102.63;5041630;28;20112;-73
2023/11/16 11:06:03;;;;;;;25.50;9.30;;;;;;;7.49;100.00;101100.94;5043355;28;20031;-74
2023/11/16 11:08:36;;;;;;;23.77;8.35;;;;;;;7.48;100.00;101099.16;5042136;28;20039;-73
2023/11/16 11:11:04;;;;;;;27.00;9.00;;;;;;;7.43;100.00;101091.19;5043695;28;20032;-74
2023/11/16 11:13:32;;;;;;;24.70;8.65;;;;;;;7.38;100.00;101097.19;5042166;28;20507;-74
2023/11/16 11:16:05;;;;;;;23.33;7.70;;;;;;;7.33;100.00;101087.47;5043577;28;20029;-73
2023/11/16 11:18:31;;;;;;;24.55;8.05;;;;;;;7.35;100.00;101081.34;5040415;28;20687;-74